Smyrna, TN (MQY)

CessnaPCRedbird FMX


Wings of Eagles Aviation started in Smyrna (MQY) in 1998 as a small flight school. The Smyrna Airport is the third largest airport in the state of Tennessee and the busiest general aviation airport. With its longest runway being just over 8,000 feet and having its own air traffic control tower, this is the best possible training environment for all pilots. Once you learn how to fly here, you will be confident no matter where your aviation adventures take you.

Address:
276 Doug Warpoole Rd.
Smyrna, TN 37167

Phone: (615) 355-0033

Business Hours:
Monday-Sunday 7a-10p

Wings MQY

NOAA Weather

Smyrna, TN

Last Updated on Dec 7 2016, 6:56 pm CST

Current Conditions: Fair

NOAA Icon

Temp: 39°F

Wind: NW at 6mph

Humidity: 76%

Windchill: 34°F

Your 5-Day Forecast at a Glance

Available data for KMQY from the past 2 hours
SMYRNA, TN
Metar
KMQY 080156Z 30004KT 10SM FEW120 03/M01 A3020 RMK AO2 SLP241 T00331006

01:56 UTC

Wind: 300° 4kt

Visibility: 10 SM

Sky: FEW 12000 ft

Temp: 3 deg C / 37.4 deg F

Dewpoint: -1 deg C / 30.2 deg F

Pressure: 30.2 inHg